(°C)
(°C)
სა
სა
სა
სა
სა
სა
სა
(კმ/სთ)
4-10
4-8
3-7
3-6
3-5
3-5
3-5
(მმ)
0
0
0
0
0
0
0
(%)
29
21
13
9
5
1
1

მზის სიმაღლე

/ -60.8°
sun-icon
UV 1
07:48
16:50
კლებადი მთვარე (187°)
17:29
08:48

METAR Renton (KRNT)-თვის

დრო პირობები ტემპერატურა/
ნამი
ქარი ხილვადობა ამინდი ღრუბლები წნევა ცვლილება დაუმუშავებელი
MVFR 8.3°C / 6.7°C variable 0kt >10km - Scattered Clouds 1700ft
Broken Clouds 2400ft
Overcast 3900ft
1024 - KRNT 190653Z AUTO 00000KT 10SM SCT017 BKN024 OVC039 08/07 A3024 RMK AO2 SLP244 T00830067
MVFR 8.3°C / 6.7°C 180º 3kt >10km - Broken Clouds 1700ft
Overcast 3300ft
1023 - KRNT 190553Z AUTO 18003KT 9SM BKN017 OVC033 08/07 A3022 RMK AO2 SLP236 60000 T00830067 10089 20083 51008
MVFR 8.3°C / 6.7°C variable 0kt >10km - Few Clouds 2000ft
Overcast 2700ft
1023 - KRNT 190453Z 00000KT 8SM FEW020 OVC027 08/07 A3022 RMK AO2 SLP236 T00830067
MVFR 8.3°C / 7.2°C variable 0kt >10km - Scattered Clouds 900ft
Overcast 2700ft
- KRNT 190441Z 00000KT 7SM SCT009 OVC027 08/07 A3022 RMK AO2 T00830072
IFR 8.3°C / 7.2°C variable 0kt 9700m Mist Vertical Visibility of 0ft.
Overcast 2700ft
- KRNT 190434Z 00000KT 6SM BR BKN009 OVC027 08/07 A3021 RMK AO2 CIG 007V012 T00830072
MVFR 8.3°C / 7.2°C variable 0kt 6400m Mist Vertical Visibility of 0ft.
Broken Clouds 2100ft
Overcast 2700ft
- KRNT 190359Z 00000KT 4SM BR BKN011 BKN021 OVC027 08/07 A3020 RMK AO2 T00830072
IFR 8.3°C / 7.2°C variable 0kt 4000m Mist Vertical Visibility of 0ft.
Broken Clouds 2100ft
Overcast 2500ft
1023 - KRNT 190353Z 00000KT 2 1/2SM BR FEW011 BKN021 OVC025 08/07 A3020 RMK AO2 SLP231 T00830072
MVFR 8.3°C / 7.2°C variable 0kt >10km - Overcast 2200ft 1022 - KRNT 190253Z 00000KT 10SM OVC022 08/07 A3019 RMK AO2 SLP228 60000 T00830072 51010
MVFR 8.3°C / 7.2°C variable 0kt >10km - Overcast 2100ft - KRNT 190200Z 00000KT 10SM OVC021 08/07 A3018 RMK AO2 T00830072
IFR 8.3°C / 7.2°C 160º 3kt 4000m Light Rain Mist 0.13mm precipitation Overcast 1500ft - KRNT 190100Z 16003KT 2 1/2SM -RA BR OVC015 08/07 A3017 RMK AO2 P0000 T00830072
IFR 8.3°C / 7.2°C 170º 3kt 4000m Mist Vertical Visibility of 0ft.
Overcast 2100ft
- KRNT 190037Z 17003KT 2 1/2SM BR BKN015 OVC021 08/07 A3017 RMK AO2 VIS 1 3/4V4 T00830072
MVFR 8.3°C / 6.7°C 180º 3kt 4800m Mist Vertical Visibility of 0ft.
Broken Clouds 1300ft
Overcast 2300ft
- KRNT 190024Z 18003KT 3SM BR SCT009 BKN013 OVC023 08/07 A3017 RMK AO2 T00830067
IFR 8.9°C / 6.7°C 180º variable 006º to 013º 4kt 4800m Mist Vertical Visibility of 0ft. - KRNT 182358Z AUTO 18004KT 3SM BR OVC007 09/07 A3016 RMK AO2 CIG 006V013 T00890067
IFR 8.3°C / 6.7°C 180º 4kt 4000m Mist Vertical Visibility of 0ft.
Overcast 1300ft
1021 - KRNT 182353Z 18004KT 2 1/2SM BR BKN009 OVC013 08/07 A3016 RMK AO2 SLP218 60000 T00830067 10089 20083 53010
IFR 8.9°C / 6.7°C 210º 3kt 4000m Mist 0.13mm precipitation Broken Clouds 900ft
Overcast 1500ft
1021 - KRNT 182253Z 21003KT 2 1/2SM BR BKN009 OVC015 09/07 A3015 RMK AO2 RAB41E48 SLP215 P0000 T00890067
IFR 8.9°C / 6.7°C variable 3kt 4000m Light Rain Mist 0.13mm precipitation Overcast 1000ft - KRNT 182243Z VRB03KT 2 1/2SM -RA BR OVC010 09/07 A3015 RMK AO2 RAB41 CIG 007V013 P0000 T00890067
MVFR 8.9°C / 6.7°C 190º 5kt >10km - Overcast 1100ft 1020 - KRNT 182153Z 19005KT 10SM OVC011 09/07 A3013 RMK AO2 SLP207 T00890067
MVFR 8.9°C / 6.7°C 180º 5kt >10km - Overcast 1100ft - KRNT 182125Z 18005KT 9SM OVC011 09/07 A3013 RMK AO2 T00890067
IFR 8.9°C / 6.7°C 190º 6kt 8000m Mist Vertical Visibility of 0ft. 1020 - KRNT 182053Z 19006KT 5SM BR OVC009 09/07 A3013 RMK AO2 SLP208 T00890067 51006
IFR 8.3°C / 6.1°C 180º 5kt 8000m Mist Vertical Visibility of 0ft. - KRNT 182023Z 18005KT 5SM BR OVC009 08/06 A3013 RMK AO2 T00830061
MVFR 8.3°C / 6.1°C 170º 4kt 6400m Mist Vertical Visibility of 0ft. 1020 - KRNT 181953Z 17004KT 4SM BR OVC012 08/06 A3013 RMK AO2 SLP208 T00830061
IFR 8.3°C / 6.1°C 160º 5kt 4000m Mist Vertical Visibility of 0ft.
Overcast 2000ft
- KRNT 181941Z 16005KT 2 1/2SM BR BKN013 OVC020 08/06 A3013 RMK AO2 T00830061
IFR 8.3°C / 5.6°C 180º 7kt 4000m Haze Vertical Visibility of 0ft. - KRNT 181912Z 18007KT 2 1/2SM HZ OVC015 08/06 A3013 RMK AO2 T00830056
MVFR 8.3°C / 5.6°C 190º 7kt 8000m Haze Vertical Visibility of 0ft. 1020 - KRNT 181853Z 19007KT 5SM HZ OVC015 08/06 A3013 RMK AO2 SLP207 T00830056

MVFR

8.3°C / 6.7°C

[მეტი]
ქარი variable 0kt
ხილვადობა >10km
ამინდი -
ღრუბლები Scattered Clouds 1700ft
Broken Clouds 2400ft
Overcast 3900ft
წნევა 1024
ცვლილება -
დაუმუშავებელი KRNT 190653Z AUTO 00000KT 10SM SCT017 BKN024 OVC039 08/07 A3024 RMK AO2 SLP244 T00830067

MVFR

8.3°C / 6.7°C

[მეტი]
ქარი 180º 3kt
ხილვადობა >10km
ამინდი -
ღრუბლები Broken Clouds 1700ft
Overcast 3300ft
წნევა 1023
ცვლილება -
დაუმუშავებელი KRNT 190553Z AUTO 18003KT 9SM BKN017 OVC033 08/07 A3022 RMK AO2 SLP236 60000 T00830067 10089 20083 51008

MVFR

8.3°C / 6.7°C

[მეტი]
ქარი variable 0kt
ხილვადობა >10km
ამინდი -
ღრუბლები Few Clouds 2000ft
Overcast 2700ft
წნევა 1023
ცვლილება -
დაუმუშავებელი KRNT 190453Z 00000KT 8SM FEW020 OVC027 08/07 A3022 RMK AO2 SLP236 T00830067

MVFR

8.3°C / 7.2°C

[მეტი]
ქარი variable 0kt
ხილვადობა >10km
ამინდი -
ღრუბლები Scattered Clouds 900ft
Overcast 2700ft
წნევა
ცვლილება -
დაუმუშავებელი KRNT 190441Z 00000KT 7SM SCT009 OVC027 08/07 A3022 RMK AO2 T00830072

IFR

8.3°C / 7.2°C

[მეტი]
ქარი variable 0kt
ხილვადობა 9700m
ამინდი Mist
ღრუბლები Vertical Visibility of 0ft.
Overcast 2700ft
წნევა
ცვლილება -
დაუმუშავებელი KRNT 190434Z 00000KT 6SM BR BKN009 OVC027 08/07 A3021 RMK AO2 CIG 007V012 T00830072

MVFR

8.3°C / 7.2°C

[მეტი]
ქარი variable 0kt
ხილვადობა 6400m
ამინდი Mist
ღრუბლები Vertical Visibility of 0ft.
Broken Clouds 2100ft
Overcast 2700ft
წნევა
ცვლილება -
დაუმუშავებელი KRNT 190359Z 00000KT 4SM BR BKN011 BKN021 OVC027 08/07 A3020 RMK AO2 T00830072

IFR

8.3°C / 7.2°C

[მეტი]
ქარი variable 0kt
ხილვადობა 4000m
ამინდი Mist
ღრუბლები Vertical Visibility of 0ft.
Broken Clouds 2100ft
Overcast 2500ft
წნევა 1023
ცვლილება -
დაუმუშავებელი KRNT 190353Z 00000KT 2 1/2SM BR FEW011 BKN021 OVC025 08/07 A3020 RMK AO2 SLP231 T00830072

MVFR

8.3°C / 7.2°C

[მეტი]
ქარი variable 0kt
ხილვადობა >10km
ამინდი -
ღრუბლები Overcast 2200ft
წნევა 1022
ცვლილება -
დაუმუშავებელი KRNT 190253Z 00000KT 10SM OVC022 08/07 A3019 RMK AO2 SLP228 60000 T00830072 51010

MVFR

8.3°C / 7.2°C

[მეტი]
ქარი variable 0kt
ხილვადობა >10km
ამინდი -
ღრუბლები Overcast 2100ft
წნევა
ცვლილება -
დაუმუშავებელი KRNT 190200Z 00000KT 10SM OVC021 08/07 A3018 RMK AO2 T00830072

IFR

8.3°C / 7.2°C

[მეტი]
ქარი 160º 3kt
ხილვადობა 4000m
ამინდი Light Rain Mist 0.13mm precipitation
ღრუბლები Overcast 1500ft
წნევა
ცვლილება -
დაუმუშავებელი KRNT 190100Z 16003KT 2 1/2SM -RA BR OVC015 08/07 A3017 RMK AO2 P0000 T00830072

IFR

8.3°C / 7.2°C

[მეტი]
ქარი 170º 3kt
ხილვადობა 4000m
ამინდი Mist
ღრუბლები Vertical Visibility of 0ft.
Overcast 2100ft
წნევა
ცვლილება -
დაუმუშავებელი KRNT 190037Z 17003KT 2 1/2SM BR BKN015 OVC021 08/07 A3017 RMK AO2 VIS 1 3/4V4 T00830072

MVFR

8.3°C / 6.7°C

[მეტი]
ქარი 180º 3kt
ხილვადობა 4800m
ამინდი Mist
ღრუბლები Vertical Visibility of 0ft.
Broken Clouds 1300ft
Overcast 2300ft
წნევა
ცვლილება -
დაუმუშავებელი KRNT 190024Z 18003KT 3SM BR SCT009 BKN013 OVC023 08/07 A3017 RMK AO2 T00830067

IFR

8.9°C / 6.7°C

[მეტი]
ქარი 180º variable 006º to 013º 4kt
ხილვადობა 4800m
ამინდი Mist
ღრუბლები Vertical Visibility of 0ft.
წნევა
ცვლილება -
დაუმუშავებელი KRNT 182358Z AUTO 18004KT 3SM BR OVC007 09/07 A3016 RMK AO2 CIG 006V013 T00890067

IFR

8.3°C / 6.7°C

[მეტი]
ქარი 180º 4kt
ხილვადობა 4000m
ამინდი Mist
ღრუბლები Vertical Visibility of 0ft.
Overcast 1300ft
წნევა 1021
ცვლილება -
დაუმუშავებელი KRNT 182353Z 18004KT 2 1/2SM BR BKN009 OVC013 08/07 A3016 RMK AO2 SLP218 60000 T00830067 10089 20083 53010

IFR

8.9°C / 6.7°C

[მეტი]
ქარი 210º 3kt
ხილვადობა 4000m
ამინდი Mist 0.13mm precipitation
ღრუბლები Broken Clouds 900ft
Overcast 1500ft
წნევა 1021
ცვლილება -
დაუმუშავებელი KRNT 182253Z 21003KT 2 1/2SM BR BKN009 OVC015 09/07 A3015 RMK AO2 RAB41E48 SLP215 P0000 T00890067

IFR

8.9°C / 6.7°C

[მეტი]
ქარი variable 3kt
ხილვადობა 4000m
ამინდი Light Rain Mist 0.13mm precipitation
ღრუბლები Overcast 1000ft
წნევა
ცვლილება -
დაუმუშავებელი KRNT 182243Z VRB03KT 2 1/2SM -RA BR OVC010 09/07 A3015 RMK AO2 RAB41 CIG 007V013 P0000 T00890067

MVFR

8.9°C / 6.7°C

[მეტი]
ქარი 190º 5kt
ხილვადობა >10km
ამინდი -
ღრუბლები Overcast 1100ft
წნევა 1020
ცვლილება -
დაუმუშავებელი KRNT 182153Z 19005KT 10SM OVC011 09/07 A3013 RMK AO2 SLP207 T00890067

MVFR

8.9°C / 6.7°C

[მეტი]
ქარი 180º 5kt
ხილვადობა >10km
ამინდი -
ღრუბლები Overcast 1100ft
წნევა
ცვლილება -
დაუმუშავებელი KRNT 182125Z 18005KT 9SM OVC011 09/07 A3013 RMK AO2 T00890067

IFR

8.9°C / 6.7°C

[მეტი]
ქარი 190º 6kt
ხილვადობა 8000m
ამინდი Mist
ღრუბლები Vertical Visibility of 0ft.
წნევა 1020
ცვლილება -
დაუმუშავებელი KRNT 182053Z 19006KT 5SM BR OVC009 09/07 A3013 RMK AO2 SLP208 T00890067 51006

IFR

8.3°C / 6.1°C

[მეტი]
ქარი 180º 5kt
ხილვადობა 8000m
ამინდი Mist
ღრუბლები Vertical Visibility of 0ft.
წნევა
ცვლილება -
დაუმუშავებელი KRNT 182023Z 18005KT 5SM BR OVC009 08/06 A3013 RMK AO2 T00830061

MVFR

8.3°C / 6.1°C

[მეტი]
ქარი 170º 4kt
ხილვადობა 6400m
ამინდი Mist
ღრუბლები Vertical Visibility of 0ft.
წნევა 1020
ცვლილება -
დაუმუშავებელი KRNT 181953Z 17004KT 4SM BR OVC012 08/06 A3013 RMK AO2 SLP208 T00830061

IFR

8.3°C / 6.1°C

[მეტი]
ქარი 160º 5kt
ხილვადობა 4000m
ამინდი Mist
ღრუბლები Vertical Visibility of 0ft.
Overcast 2000ft
წნევა
ცვლილება -
დაუმუშავებელი KRNT 181941Z 16005KT 2 1/2SM BR BKN013 OVC020 08/06 A3013 RMK AO2 T00830061

IFR

8.3°C / 5.6°C

[მეტი]
ქარი 180º 7kt
ხილვადობა 4000m
ამინდი Haze
ღრუბლები Vertical Visibility of 0ft.
წნევა
ცვლილება -
დაუმუშავებელი KRNT 181912Z 18007KT 2 1/2SM HZ OVC015 08/06 A3013 RMK AO2 T00830056

MVFR

8.3°C / 5.6°C

[მეტი]
ქარი 190º 7kt
ხილვადობა 8000m
ამინდი Haze
ღრუბლები Vertical Visibility of 0ft.
წნევა 1020
ცვლილება -
დაუმუშავებელი KRNT 181853Z 19007KT 5SM HZ OVC015 08/06 A3013 RMK AO2 SLP207 T00830056

რადარის და ნალექების მაჩვენებელი Renton -თვის

გაწურეთ
Მსუბუქი
ზომიერი
Მძიმე
Ძალიან მძიმე
სეტყვა

მდებარეობის მარკერი მოთავსებულია Renton -ზე. ეს ანიმაცია აჩვენებს ნალექების სარადარო მონაცემებს როგორც ბოლო საათის განმავლობაში, ასევე 1h პროგნოზს. წვიმა ან თოვლის მსუბუქი ვარდნა შეიძლება უჩინარი იყოს რადარისთვის. ნალექების ინტენსივობა არის კოდირებული ფერით, დაწყებული ღია ლურჯიდან ნარინჯისფერამდე.

მიმდინარე სატელიტური სურათები Renton-თვის, აშშ

ლოკაციის მარკერი დაყენებყლია Rentonზე. [მეტი]

რეალურ დროში სატელიტური სურათი აერთიანებს ხილულ სინათლეს დღისით ღამის განმავლობაში ინფრაწითელ გამოსხივებასთან ერთად. ღამით, სურათი არ არის მუქი, რადგან ინფრაწითელ გამოსხივებას შეუძლია ტემპერატურის განსხვავებების დადგენა. სამწუხაროდ, დაბალი ღრუბლები და ნისლი ძნელია განასხვავონ მიწის ტემპერატურისგან და, შესაბამისად, ისინი შეიძლება თითქმის არ ჩანდეს ღამით. Meteosat სატელიტური გამოსახულება ევროპისთვის ახლდება რეალურ დროში ყოველ 5 წუთში. GOES-16/GOES-17 (ჩრდილოეთი და სამხრეთ ამერიკა) და ჰიმავარი (აზია) გამოსახულებები ახლდება ყოველ 10 წუთში.